createdAt,value
2022-08-23T00:01:33.777Z,2.10
2022-08-23T00:04:02.433Z,2.90
2022-08-23T00:06:29.495Z,2.58
2022-08-23T00:08:56.712Z,3.05
2022-08-23T00:11:38.180Z,2.70
2022-08-23T00:14:25.023Z,2.50
2022-08-23T00:16:52.534Z,2.88
2022-08-23T00:19:19.835Z,2.60
2022-08-23T00:21:47.281Z,2.75
2022-08-23T00:24:14.603Z,2.53
2022-08-23T00:26:51.651Z,2.30
2022-08-23T00:29:18.747Z,2.60
2022-08-23T00:31:46.015Z,2.50
2022-08-23T00:34:12.897Z,2.60
2022-08-23T00:36:39.915Z,2.70
2022-08-23T00:39:06.999Z,2.28
2022-08-23T00:41:34.781Z,2.90
2022-08-23T00:44:20.922Z,2.85
2022-08-23T00:47:08.013Z,2.90
2022-08-23T00:49:35.948Z,2.83
2022-08-23T00:52:23.095Z,2.72
2022-08-23T00:54:50.278Z,2.50
2022-08-23T00:57:19.280Z,2.60
2022-08-23T00:59:46.260Z,2.67
2022-08-23T01:02:14.393Z,2.72
2022-08-23T01:04:53.951Z,2.60
2022-08-23T01:07:43.212Z,2.33
2022-08-23T01:10:20.970Z,2.58
2022-08-23T01:12:52.108Z,2.40
2022-08-23T01:15:39.136Z,3.45
2022-08-23T01:18:10.488Z,2.80
2022-08-23T01:20:41.745Z,3.00
2022-08-23T01:23:27.948Z,2.70
2022-08-23T01:25:55.322Z,2.63
2022-08-23T01:28:22.272Z,2.50
2022-08-23T01:30:48.988Z,3.20
2022-08-23T01:33:16.936Z,2.50
2022-08-23T01:35:47.558Z,2.80
2022-08-23T01:38:14.410Z,2.97
2022-08-23T01:40:42.404Z,2.70
2022-08-23T01:43:09.327Z,2.90
2022-08-23T01:45:37.704Z,2.80
2022-08-23T01:48:07.972Z,2.70
2022-08-23T01:50:34.799Z,2.85
2022-08-23T01:53:02.021Z,3.40
2022-08-23T01:55:29.981Z,3.10
2022-08-23T01:57:57.759Z,3.47
2022-08-23T02:00:26.983Z,2.90
2022-08-23T02:02:54.815Z,3.30
2022-08-23T02:05:22.607Z,2.90
2022-08-23T02:07:49.314Z,3.38
2022-08-23T02:10:17.576Z,3.00
2022-08-23T02:12:44.439Z,3.13
2022-08-23T02:15:15.189Z,2.90
2022-08-23T02:17:44.404Z,3.40
2022-08-23T02:20:11.341Z,2.78
2022-08-23T02:22:39.617Z,2.90
2022-08-23T02:25:07.360Z,3.17
2022-08-23T02:27:34.207Z,3.15
2022-08-23T02:30:02.032Z,3.13
2022-08-23T02:32:29.680Z,2.78
2022-08-23T02:35:05.629Z,3.25
2022-08-23T02:37:34.843Z,3.35
2022-08-23T02:40:02.507Z,2.97
2022-08-23T02:42:30.198Z,2.70
2022-08-23T02:44:56.879Z,2.97
2022-08-23T02:47:23.729Z,2.88
2022-08-23T02:50:07.146Z,3.08
2022-08-23T02:52:35.029Z,2.83
2022-08-23T02:55:03.209Z,3.10
2022-08-23T02:57:31.567Z,2.83
2022-08-23T03:00:01.125Z,2.88
2022-08-23T03:02:28.336Z,3.10
2022-08-23T03:04:55.160Z,2.72
2022-08-23T03:07:21.956Z,3.40
2022-08-23T03:09:48.681Z,3.25
2022-08-23T03:12:15.750Z,3.10
2022-08-23T03:14:48.544Z,2.78
2022-08-23T03:17:17.361Z,3.00
2022-08-23T03:19:44.573Z,2.80
2022-08-23T03:22:11.414Z,2.88
2022-08-23T03:24:38.922Z,3.25
2022-08-23T03:27:06.845Z,3.20
2022-08-23T03:29:34.637Z,2.90
2022-08-23T03:32:03.629Z,3.50
2022-08-23T03:34:34.880Z,3.20
2022-08-23T03:37:01.942Z,2.67
2022-08-23T03:39:28.813Z,2.80
2022-08-23T03:41:57.922Z,3.28
2022-08-23T03:44:27.192Z,3.75
2022-08-23T03:46:54.332Z,2.80
2022-08-23T03:49:21.233Z,2.42
2022-08-23T03:51:52.277Z,2.78
2022-08-23T03:54:19.200Z,2.88
2022-08-23T03:57:00.829Z,2.88
2022-08-23T03:59:32.608Z,2.95
2022-08-23T04:02:00.150Z,2.58
2022-08-23T04:04:28.529Z,2.92
2022-08-23T04:07:21.558Z,2.90
2022-08-23T04:09:55.140Z,2.85
2022-08-23T04:12:24.636Z,3.00
2022-08-23T04:14:52.403Z,2.50
2022-08-23T04:17:21.061Z,2.55
2022-08-23T04:19:49.375Z,2.97
2022-08-23T04:22:18.153Z,3.25
2022-08-23T04:24:45.403Z,2.97
2022-08-23T04:27:13.120Z,2.92
2022-08-23T04:29:40.128Z,3.20
2022-08-23T04:32:09.767Z,3.13
2022-08-23T04:34:40.175Z,3.20
2022-08-23T04:37:09.225Z,3.13
2022-08-23T04:39:55.931Z,3.58
2022-08-23T04:42:23.577Z,3.25
2022-08-23T04:44:51.336Z,2.90
2022-08-23T04:47:18.370Z,3.35
2022-08-23T04:49:46.884Z,3.38
2022-08-23T04:52:19.042Z,2.70
2022-08-23T04:54:47.221Z,3.30
2022-08-23T04:57:26.839Z,3.28
2022-08-23T04:59:53.787Z,3.20
2022-08-23T05:02:21.659Z,3.33
2022-08-23T05:04:48.300Z,3.35
2022-08-23T05:07:15.739Z,3.08
2022-08-23T05:09:43.311Z,3.22
2022-08-23T05:12:11.383Z,3.08
2022-08-23T05:14:38.162Z,3.33
2022-08-23T05:17:05.117Z,3.25
2022-08-23T05:19:34.944Z,3.28
2022-08-23T05:22:06.328Z,3.50
2022-08-23T05:24:57.197Z,3.25
2022-08-23T05:27:24.608Z,3.60
2022-08-23T05:29:54.255Z,3.63
2022-08-23T05:32:21.381Z,3.25
2022-08-23T05:34:48.406Z,3.55
2022-08-23T05:37:15.769Z,3.40
2022-08-23T05:39:43.115Z,3.45
2022-08-23T05:42:11.972Z,3.42
2022-08-23T05:44:38.877Z,3.83
2022-08-23T05:47:11.075Z,3.47
2022-08-23T05:49:58.797Z,3.45
2022-08-23T05:52:27.925Z,3.20
2022-08-23T05:54:54.674Z,3.17
2022-08-23T05:57:41.745Z,3.88
2022-08-23T06:00:18.604Z,4.10
2022-08-23T06:02:53.386Z,4.50
2022-08-23T06:05:20.534Z,4.15
2022-08-23T06:07:49.468Z,3.85
2022-08-23T06:10:20.388Z,4.10
2022-08-23T06:12:52.133Z,3.53
2022-08-23T06:15:19.654Z,4.18
2022-08-23T06:17:46.789Z,4.18
2022-08-23T06:20:15.797Z,4.20
2022-08-23T06:23:05.967Z,4.07
2022-08-23T06:25:36.689Z,4.25
2022-08-23T06:28:10.037Z,4.60
2022-08-23T06:30:39.792Z,4.10
2022-08-23T06:33:24.387Z,4.60
2022-08-23T06:36:17.387Z,4.57
2022-08-23T06:38:57.139Z,4.65
2022-08-23T06:42:10.197Z,4.32
2022-08-23T06:44:49.138Z,4.28
2022-08-23T06:47:31.661Z,4.65
2022-08-23T06:49:59.066Z,4.82
2022-08-23T06:52:49.639Z,4.22
2022-08-23T06:55:28.953Z,4.50
2022-08-23T06:58:22.348Z,4.55
2022-08-23T07:01:44.737Z,5.00
2022-08-23T07:04:31.813Z,4.70
2022-08-23T07:07:39.600Z,4.50
2022-08-23T07:10:11.166Z,4.78
2022-08-23T07:12:38.752Z,4.57
2022-08-23T07:15:05.557Z,4.85
2022-08-23T07:17:32.159Z,4.63
2022-08-23T07:19:58.858Z,4.22
2022-08-23T07:22:25.537Z,4.43
2022-08-23T07:24:52.996Z,4.60
2022-08-23T07:27:22.024Z,4.55
2022-08-23T07:29:59.770Z,4.32
2022-08-23T07:32:26.951Z,4.72
2022-08-23T07:34:56.262Z,4.53
2022-08-23T07:37:23.410Z,4.10
2022-08-23T07:39:50.667Z,4.18
2022-08-23T07:42:24.340Z,4.40
2022-08-23T07:44:55.124Z,4.18
2022-08-23T07:47:25.304Z,4.50
2022-08-23T07:49:54.915Z,3.90
2022-08-23T07:52:21.991Z,4.30
2022-08-23T07:54:49.591Z,4.75
2022-08-23T07:57:35.337Z,3.55
2022-08-23T08:00:12.032Z,4.15
2022-08-23T08:03:05.177Z,4.18
2022-08-23T08:05:47.676Z,3.97
2022-08-23T08:08:15.121Z,3.70
2022-08-23T08:10:43.931Z,4.40
2022-08-23T08:13:11.169Z,4.25
2022-08-23T08:15:40.836Z,4.25
2022-08-23T08:18:10.708Z,4.72
2022-08-23T08:20:56.267Z,4.25
2022-08-23T08:23:41.672Z,4.18
2022-08-23T08:26:33.193Z,4.20
2022-08-23T08:29:00.020Z,4.10
2022-08-23T08:31:27.405Z,3.92
2022-08-23T08:33:54.949Z,3.85
2022-08-23T08:36:40.175Z,4.10
2022-08-23T08:39:13.072Z,3.70
2022-08-23T08:41:44.807Z,3.72
2022-08-23T08:44:39.015Z,4.22
2022-08-23T08:47:26.107Z,4.45
2022-08-23T08:49:56.289Z,3.97
2022-08-23T08:52:32.047Z,4.25
2022-08-23T08:55:03.987Z,4.10
2022-08-23T08:57:31.978Z,3.88
2022-08-23T09:00:00.510Z,3.95
2022-08-23T09:02:33.623Z,4.30
2022-08-23T09:05:09.604Z,4.18
2022-08-23T09:07:36.268Z,3.78
2022-08-23T09:10:09.033Z,3.50
2022-08-23T09:12:43.650Z,4.20
2022-08-23T09:15:10.818Z,3.63
2022-08-23T09:17:47.479Z,3.47
2022-08-23T09:20:15.409Z,3.60
2022-08-23T09:22:47.496Z,3.70
2022-08-23T09:25:26.272Z,3.83
2022-08-23T09:28:00.597Z,3.50
2022-08-23T09:30:45.983Z,3.97
2022-08-23T09:33:17.707Z,3.53
2022-08-23T09:35:52.405Z,3.40
2022-08-23T09:38:20.427Z,3.63
2022-08-23T09:40:51.824Z,3.50
2022-08-23T09:43:26.996Z,3.10
2022-08-23T09:45:56.987Z,4.10
2022-08-23T09:48:40.741Z,3.40
2022-08-23T09:51:17.505Z,3.70
2022-08-23T09:53:53.437Z,3.40
2022-08-23T09:56:24.683Z,3.50
2022-08-23T09:58:53.805Z,3.55
2022-08-23T10:01:39.155Z,3.28
2022-08-23T10:04:13.384Z,3.33
2022-08-23T10:06:41.981Z,2.90
2022-08-23T10:09:09.942Z,3.15
2022-08-23T10:11:47.748Z,3.55
2022-08-23T10:14:17.681Z,3.25
2022-08-23T10:17:04.629Z,2.88
2022-08-23T10:19:31.257Z,3.28
2022-08-23T10:22:02.264Z,2.25
2022-08-23T10:24:35.965Z,2.55
2022-08-23T10:27:41.110Z,2.30
2022-08-23T10:30:14.050Z,2.40
2022-08-23T10:33:03.000Z,2.70
2022-08-23T10:35:30.187Z,2.42
2022-08-23T10:38:03.284Z,2.42
2022-08-23T10:40:40.311Z,2.38
2022-08-23T10:43:26.076Z,2.25
2022-08-23T10:46:00.178Z,2.40
2022-08-23T10:48:43.758Z,2.30
2022-08-23T10:51:20.002Z,2.00
2022-08-23T10:53:56.885Z,1.65
2022-08-23T10:56:24.515Z,1.95
2022-08-23T10:59:15.117Z,1.73
2022-08-23T11:01:58.091Z,1.90
2022-08-23T11:05:02.669Z,1.80
2022-08-23T11:07:37.426Z,1.70
2022-08-23T11:10:16.865Z,1.30
2022-08-23T11:13:01.381Z,1.67
2022-08-23T11:15:33.404Z,1.45
2022-08-23T11:18:02.083Z,1.50
2022-08-23T11:20:48.298Z,1.27
2022-08-23T11:23:35.108Z,1.52
2022-08-23T11:26:02.549Z,1.58
2022-08-23T11:28:30.596Z,1.48
2022-08-23T11:30:58.135Z,1.40
2022-08-23T11:33:41.739Z,1.40
2022-08-23T11:36:08.635Z,1.70
2022-08-23T11:38:48.562Z,2.42
2022-08-23T11:41:19.426Z,1.70
2022-08-23T11:43:48.502Z,1.58
2022-08-23T11:46:34.674Z,1.48
2022-08-23T11:49:19.390Z,1.70
2022-08-23T11:52:04.513Z,1.70
2022-08-23T11:54:50.205Z,1.80
2022-08-23T11:57:19.799Z,1.88
2022-08-23T12:00:09.233Z,1.55
2022-08-23T12:02:38.479Z,1.63
2022-08-23T12:05:32.658Z,1.63
2022-08-23T12:08:20.788Z,1.67
2022-08-23T12:10:50.470Z,1.23
2022-08-23T12:13:22.652Z,1.40
2022-08-23T12:16:16.836Z,1.48
2022-08-23T12:18:47.677Z,1.80
2022-08-23T12:21:23.825Z,1.60
2022-08-23T12:23:55.475Z,1.48
2022-08-23T12:26:22.163Z,1.50
2022-08-23T12:28:57.270Z,1.67
2022-08-23T12:31:29.797Z,1.30
2022-08-23T12:34:08.831Z,2.40
2022-08-23T12:36:35.421Z,1.40
2022-08-23T12:39:07.184Z,1.30
2022-08-23T12:41:55.608Z,1.52
2022-08-23T12:44:23.529Z,1.50
2022-08-23T12:46:51.315Z,1.52
2022-08-23T12:49:30.661Z,1.65
2022-08-23T12:51:58.574Z,1.60
2022-08-23T12:54:37.446Z,1.60
2022-08-23T12:57:11.683Z,1.50
2022-08-23T13:00:16.222Z,1.50
2022-08-23T13:02:51.260Z,1.73
2022-08-23T13:05:30.538Z,1.60
2022-08-23T13:07:58.006Z,1.50
2022-08-23T13:10:25.019Z,1.60
2022-08-23T13:12:51.711Z,1.70
2022-08-23T13:15:41.743Z,1.38
2022-08-23T13:18:08.587Z,2.05
2022-08-23T13:20:35.306Z,1.45
2022-08-23T13:23:06.635Z,1.58
2022-08-23T13:25:35.026Z,1.45
2022-08-23T13:28:07.198Z,1.40
2022-08-23T13:30:36.408Z,1.70
2022-08-23T13:33:07.757Z,1.65
2022-08-23T13:35:47.248Z,2.00
2022-08-23T13:38:21.687Z,1.70
2022-08-23T13:41:03.826Z,1.30
2022-08-23T13:43:31.098Z,1.58
2022-08-23T13:45:58.882Z,1.38
2022-08-23T13:48:27.847Z,1.52
2022-08-23T13:50:54.852Z,1.48
2022-08-23T13:53:22.387Z,1.80
2022-08-23T13:55:51.917Z,1.60
2022-08-23T13:58:26.409Z,1.73
2022-08-23T14:00:55.511Z,1.60
2022-08-23T14:03:23.538Z,1.60
2022-08-23T14:05:50.182Z,1.80
2022-08-23T14:08:16.888Z,1.55
2022-08-23T14:10:43.921Z,1.60
2022-08-23T14:13:11.306Z,1.33
2022-08-23T14:15:56.511Z,1.70
2022-08-23T14:18:23.531Z,1.60
2022-08-23T14:20:51.269Z,1.58
2022-08-23T14:23:18.912Z,1.15
2022-08-23T14:25:45.914Z,1.65
2022-08-23T14:28:13.889Z,1.60
2022-08-23T14:30:40.594Z,1.98
2022-08-23T14:33:07.445Z,1.25
2022-08-23T14:35:34.107Z,1.48
2022-08-23T14:38:03.348Z,1.63
2022-08-23T14:40:30.549Z,1.40
2022-08-23T14:42:57.381Z,1.50
2022-08-23T14:45:24.153Z,1.65
2022-08-23T14:47:50.906Z,1.35
2022-08-23T14:50:17.652Z,1.50
2022-08-23T14:52:45.737Z,1.25
2022-08-23T14:55:13.318Z,1.40
2022-08-23T14:57:40.397Z,1.52
2022-08-23T15:00:08.776Z,1.40
2022-08-23T15:02:36.535Z,1.50
2022-08-23T15:05:03.902Z,1.33
2022-08-23T15:07:30.522Z,1.80
2022-08-23T15:09:57.197Z,1.48
2022-08-23T15:15:16.555Z,1.55
2022-08-23T15:17:52.325Z,2.35
2022-08-23T15:20:20.043Z,1.50
2022-08-23T15:22:55.074Z,1.48
2022-08-23T15:25:22.413Z,1.40
2022-08-23T15:27:50.648Z,1.23
2022-08-23T15:30:17.789Z,1.30
2022-08-23T15:32:52.574Z,1.45
2022-08-23T15:35:33.450Z,1.20
2022-08-23T15:38:00.207Z,1.40
2022-08-23T15:40:26.915Z,1.20
2022-08-23T15:42:54.002Z,1.38
2022-08-23T15:45:20.811Z,1.65
2022-08-23T15:47:55.275Z,1.73
2022-08-23T15:50:23.876Z,1.35
2022-08-23T15:52:50.605Z,1.02
2022-08-23T15:55:17.451Z,1.40
2022-08-23T15:57:48.451Z,1.25
2022-08-23T16:00:17.443Z,1.17
2022-08-23T16:03:06.326Z,1.30
2022-08-23T16:05:31.099Z,1.42
2022-08-23T16:07:58.200Z,1.27
2022-08-23T16:10:28.225Z,1.20
2022-08-23T16:12:55.334Z,1.48
2022-08-23T16:15:22.330Z,1.30
2022-08-23T16:17:49.016Z,1.00
2022-08-23T16:20:15.667Z,1.17
2022-08-23T16:22:42.309Z,1.25
2022-08-23T16:25:09.102Z,1.27
2022-08-23T16:27:35.873Z,1.35
2022-08-23T16:30:03.753Z,1.10
2022-08-23T16:32:30.465Z,1.20
2022-08-23T16:34:57.076Z,1.20
2022-08-23T16:37:23.718Z,1.30
2022-08-23T16:39:50.488Z,1.30
2022-08-23T16:42:18.193Z,1.20
2022-08-23T16:44:44.874Z,1.10
2022-08-23T16:47:12.750Z,1.17
2022-08-23T16:49:40.095Z,1.30
2022-08-23T16:52:07.033Z,1.00
2022-08-23T16:54:33.805Z,1.30
2022-08-23T16:57:00.792Z,1.30
2022-08-23T16:59:27.589Z,1.30
2022-08-23T17:01:59.606Z,1.40
2022-08-23T17:04:30.245Z,1.40
2022-08-23T17:06:58.334Z,1.30
2022-08-23T17:09:26.128Z,1.35
2022-08-23T17:11:53.276Z,1.45
2022-08-23T17:14:20.455Z,1.25
2022-08-23T17:16:47.231Z,1.30
2022-08-23T17:19:14.378Z,1.55
2022-08-23T17:21:42.023Z,1.48
2022-08-23T17:24:09.453Z,1.75
2022-08-23T17:26:37.277Z,1.60
2022-08-23T17:29:04.869Z,1.30
2022-08-23T17:31:31.665Z,1.25
2022-08-23T17:34:03.205Z,1.58
2022-08-23T17:36:35.923Z,1.50
2022-08-23T17:39:06.159Z,1.10
2022-08-23T17:41:35.269Z,1.50
2022-08-23T17:44:02.707Z,1.10
2022-08-23T17:46:29.496Z,1.23
2022-08-23T17:48:57.778Z,1.20
2022-08-23T17:51:24.797Z,1.20
2022-08-23T17:53:51.526Z,1.50
2022-08-23T17:56:18.645Z,1.20
2022-08-23T17:58:45.282Z,1.10
2022-08-23T18:01:12.110Z,1.30
2022-08-23T18:03:39.024Z,1.40
2022-08-23T18:06:16.541Z,1.30
2022-08-23T18:08:44.410Z,1.13
2022-08-23T18:11:11.124Z,1.40
2022-08-23T18:13:37.754Z,1.13
2022-08-23T18:16:05.071Z,1.23
2022-08-23T18:18:32.280Z,1.38
2022-08-23T18:20:58.897Z,1.20
2022-08-23T18:23:26.351Z,1.20
2022-08-23T18:25:53.024Z,1.30
2022-08-23T18:28:19.651Z,1.27
2022-08-23T18:30:46.342Z,1.65
2022-08-23T18:33:13.682Z,1.20
2022-08-23T18:35:40.617Z,1.88
2022-08-23T18:38:08.309Z,1.65
2022-08-23T18:40:45.319Z,1.50
2022-08-23T18:43:16.905Z,1.48
2022-08-23T18:45:44.546Z,1.40
2022-08-23T18:48:12.362Z,1.38
2022-08-23T18:50:39.882Z,1.48
2022-08-23T18:53:07.399Z,1.58
2022-08-23T18:55:34.134Z,1.38
2022-08-23T18:58:02.426Z,1.83
2022-08-23T19:00:29.112Z,1.30
2022-08-23T19:02:55.910Z,1.60
2022-08-23T19:05:22.610Z,1.23
2022-08-23T19:07:49.792Z,2.33
2022-08-23T19:10:20.276Z,1.30
2022-08-23T19:12:51.749Z,1.52
2022-08-23T19:15:21.720Z,1.75
2022-08-23T19:17:48.364Z,1.48
2022-08-23T19:20:15.929Z,1.38
2022-08-23T19:22:43.325Z,1.75
2022-08-23T19:25:10.118Z,1.50
2022-08-23T19:27:37.235Z,1.55
2022-08-23T19:30:05.531Z,1.35
2022-08-23T19:32:35.231Z,1.65
2022-08-23T19:35:02.335Z,1.70
2022-08-23T19:37:28.976Z,1.50
2022-08-23T19:39:55.686Z,1.20
2022-08-23T19:42:23.593Z,1.42
2022-08-23T19:44:53.803Z,1.30
2022-08-23T19:47:23.642Z,1.40
2022-08-23T19:49:56.465Z,1.35
2022-08-23T19:52:23.183Z,1.60
2022-08-23T19:54:50.727Z,1.50
2022-08-23T19:57:17.500Z,1.38
2022-08-23T19:59:44.172Z,1.70
2022-08-23T20:02:13.862Z,1.70
2022-08-23T20:04:40.878Z,1.63
2022-08-23T20:07:07.535Z,1.70
2022-08-23T20:09:34.337Z,1.60
2022-08-23T20:12:01.197Z,1.40
2022-08-23T20:14:29.084Z,1.35
2022-08-23T20:16:55.777Z,1.63
2022-08-23T20:19:22.596Z,1.60
2022-08-23T20:21:49.315Z,1.27
2022-08-23T20:24:16.508Z,1.65
2022-08-23T20:26:47.921Z,1.40
2022-08-23T20:29:17.248Z,1.33
2022-08-23T20:31:51.503Z,1.50
2022-08-23T20:34:18.248Z,1.60
2022-08-23T20:36:45.395Z,1.85
2022-08-23T20:39:12.045Z,1.83
2022-08-23T20:41:39.895Z,1.50
2022-08-23T20:44:07.410Z,1.50
2022-08-23T20:46:34.185Z,1.75
2022-08-23T20:49:00.936Z,1.77
2022-08-23T20:51:28.241Z,1.92
2022-08-23T20:53:55.918Z,2.33
2022-08-23T20:56:23.515Z,1.40
2022-08-23T20:58:52.736Z,1.38
2022-08-23T21:01:19.515Z,2.03
2022-08-23T21:03:46.274Z,1.77
2022-08-23T21:06:21.802Z,1.63
2022-08-23T21:08:49.644Z,1.60
2022-08-23T21:11:21.141Z,1.50
2022-08-23T21:13:48.509Z,1.80
2022-08-23T21:16:15.984Z,1.40
2022-08-23T21:18:43.144Z,1.67
2022-08-23T21:21:09.901Z,2.20
2022-08-23T21:23:37.403Z,1.77
2022-08-23T21:26:04.901Z,1.67
2022-08-23T21:28:32.224Z,1.70
2022-08-23T21:31:10.011Z,2.10
2022-08-23T21:33:40.150Z,2.00
2022-08-23T21:36:07.389Z,1.95
2022-08-23T21:38:34.325Z,1.70
2022-08-23T21:41:02.529Z,1.98
2022-08-23T21:43:30.230Z,1.77
2022-08-23T21:45:57.187Z,1.73
2022-08-23T21:48:24.447Z,2.50
2022-08-23T21:50:51.747Z,2.42
2022-08-23T21:53:19.673Z,1.88
2022-08-23T21:55:46.616Z,1.85
2022-08-23T21:58:13.976Z,1.60
2022-08-23T22:00:41.324Z,1.90
2022-08-23T22:03:09.052Z,1.80
2022-08-23T22:05:43.214Z,1.65
2022-08-23T22:08:10.709Z,1.83
2022-08-23T22:10:50.115Z,2.65
2022-08-23T22:13:24.224Z,1.60
2022-08-23T22:15:50.897Z,2.03
2022-08-23T22:18:17.532Z,1.83
2022-08-23T22:20:44.192Z,2.00
2022-08-23T22:23:11.367Z,1.75
2022-08-23T22:25:38.134Z,2.30
2022-08-23T22:28:04.805Z,1.70
2022-08-23T22:30:31.540Z,2.00
2022-08-23T22:32:58.424Z,2.10
2022-08-23T22:35:25.315Z,1.83
2022-08-23T22:38:12.145Z,1.80
2022-08-23T22:40:39.475Z,2.10
2022-08-23T22:43:06.161Z,2.13
2022-08-23T22:45:32.807Z,1.90
2022-08-23T22:47:59.655Z,2.28
2022-08-23T22:50:26.335Z,2.10
2022-08-23T22:52:53.117Z,1.90
2022-08-23T22:55:19.779Z,2.22
2022-08-23T22:57:46.411Z,2.10
2022-08-23T23:00:13.169Z,2.60
2022-08-23T23:02:40.861Z,2.05
2022-08-23T23:05:07.919Z,2.55
2022-08-23T23:07:52.926Z,2.38
2022-08-23T23:10:19.597Z,2.25
2022-08-23T23:12:46.442Z,2.03
2022-08-23T23:15:13.400Z,2.00
2022-08-23T23:17:40.064Z,1.92
2022-08-23T23:20:25.412Z,1.70
2022-08-23T23:22:52.093Z,2.08
2022-08-23T23:25:18.829Z,1.88
2022-08-23T23:27:45.561Z,2.20
2022-08-23T23:30:12.995Z,2.10
2022-08-23T23:32:39.635Z,2.17
2022-08-23T23:35:08.676Z,2.85
2022-08-23T23:37:35.520Z,2.58
2022-08-23T23:40:02.682Z,2.17
2022-08-23T23:42:29.492Z,2.20
2022-08-23T23:44:56.131Z,2.03
2022-08-23T23:47:22.788Z,1.95
2022-08-23T23:49:50.672Z,2.00
2022-08-23T23:52:17.351Z,2.28
2022-08-23T23:54:44.069Z,2.20
2022-08-23T23:57:10.719Z,2.20
2022-08-23T23:59:37.394Z,2.50
